createdAt,value
2022-07-31T00:01:36.925Z,96.60
2022-07-31T00:04:10.869Z,97.40
2022-07-31T00:06:42.726Z,97.60
2022-07-31T00:09:49.174Z,98.30
2022-07-31T00:12:02.088Z,96.60
2022-07-31T00:14:29.977Z,96.30
2022-07-31T00:16:58.789Z,97.10
2022-07-31T00:19:29.420Z,97.80
2022-07-31T00:21:58.662Z,97.60
2022-07-31T00:24:27.197Z,96.60
2022-07-31T00:27:08.562Z,96.90
2022-07-31T00:29:36.744Z,97.50
2022-07-31T00:32:05.127Z,96.80
2022-07-31T00:34:38.633Z,96.90
2022-07-31T00:37:07.038Z,96.60
2022-07-31T00:39:35.050Z,97.10
2022-07-31T00:42:06.916Z,97.40
2022-07-31T00:44:40.327Z,97.30
2022-07-31T00:47:09.222Z,97.50
2022-07-31T00:49:38.073Z,97.00
2022-07-31T00:52:06.455Z,97.60
2022-07-31T00:54:34.906Z,97.20
2022-07-31T00:57:11.421Z,97.10
2022-07-31T00:59:46.823Z,96.80
2022-07-31T01:02:15.003Z,96.60
2022-07-31T01:04:44.556Z,96.80
2022-07-31T01:07:14.089Z,96.90
2022-07-31T01:09:45.008Z,96.90
2022-07-31T01:12:22.595Z,96.80
2022-07-31T01:14:52.657Z,96.80
2022-07-31T01:17:22.517Z,96.90
2022-07-31T01:19:52.023Z,97.10
2022-07-31T01:22:40.333Z,97.20
2022-07-31T01:25:17.787Z,97.10
2022-07-31T01:27:57.114Z,97.00
2022-07-31T01:30:30.723Z,97.10
2022-07-31T01:33:02.848Z,97.10
2022-07-31T01:35:34.617Z,97.00
2022-07-31T01:38:11.393Z,97.30
2022-07-31T01:40:52.309Z,97.10
2022-07-31T01:43:26.930Z,97.10
2022-07-31T01:46:47.032Z,97.10
2022-07-31T01:49:28.395Z,97.00
2022-07-31T01:52:04.294Z,97.40
2022-07-31T01:54:34.152Z,97.50
2022-07-31T01:57:03.198Z,97.60
2022-07-31T01:59:38.180Z,97.20
2022-07-31T02:02:18.827Z,97.70
2022-07-31T02:04:47.963Z,97.50
2022-07-31T02:07:16.849Z,97.70
2022-07-31T02:12:54.121Z,97.30
2022-07-31T02:15:22.697Z,98.20
2022-07-31T02:17:52.658Z,98.00
2022-07-31T02:20:27.176Z,97.80
2022-07-31T02:23:08.518Z,98.30
2022-07-31T02:28:51.094Z,97.60
2022-07-31T02:31:21.795Z,98.50
2022-07-31T02:33:50.339Z,98.20
2022-07-31T02:36:22.255Z,98.00
2022-07-31T02:38:59.217Z,98.50
2022-07-31T02:41:31.310Z,97.70
2022-07-31T02:43:59.623Z,98.80
2022-07-31T02:46:28.194Z,97.90
2022-07-31T02:48:57.086Z,98.00
2022-07-31T02:51:25.253Z,98.40
2022-07-31T02:53:54.561Z,98.30
2022-07-31T02:56:25.308Z,98.90
2022-07-31T02:58:53.350Z,99.00
2022-07-31T03:01:37.699Z,99.60
2022-07-31T03:04:08.464Z,99.00
2022-07-31T03:06:36.607Z,99.10
2022-07-31T03:09:04.487Z,99.20
2022-07-31T03:11:36.750Z,99.50
2022-07-31T03:14:05.513Z,99.70
2022-07-31T03:16:34.582Z,99.50
2022-07-31T03:19:04.507Z,99.10
2022-07-31T03:21:33.174Z,99.80
2022-07-31T03:24:01.882Z,99.70
2022-07-31T03:26:31.099Z,99.70
2022-07-31T03:29:01.729Z,99.90
2022-07-31T03:31:30.291Z,99.70
2022-07-31T03:33:59.269Z,99.90
2022-07-31T03:36:33.259Z,99.90
2022-07-31T03:39:01.976Z,99.90
2022-07-31T03:41:39.939Z,99.90
2022-07-31T03:44:14.192Z,99.90
2022-07-31T03:46:42.546Z,99.90
2022-07-31T03:49:10.585Z,99.90
2022-07-31T03:51:39.443Z,99.90
2022-07-31T03:54:07.590Z,99.90
2022-07-31T03:56:48.960Z,99.90
2022-07-31T03:59:21.657Z,99.90
2022-07-31T04:01:57.911Z,99.90
2022-07-31T04:04:49.740Z,99.90
2022-07-31T04:07:17.433Z,99.90
2022-07-31T04:09:48.560Z,99.90
2022-07-31T04:12:22.707Z,99.90
2022-07-31T04:14:54.126Z,99.90
2022-07-31T04:17:22.018Z,99.90
2022-07-31T04:19:49.993Z,99.90
2022-07-31T04:22:17.857Z,99.90
2022-07-31T04:24:46.898Z,99.90
2022-07-31T04:27:26.567Z,99.90
2022-07-31T04:29:55.663Z,99.90
2022-07-31T04:32:24.172Z,99.90
2022-07-31T04:35:00.982Z,99.90
2022-07-31T04:37:31.445Z,99.90
2022-07-31T04:40:00.172Z,99.90
2022-07-31T04:42:35.073Z,99.90
2022-07-31T04:45:12.774Z,99.90
2022-07-31T04:47:42.739Z,99.90
2022-07-31T04:50:10.914Z,99.90
2022-07-31T04:52:39.023Z,99.90
2022-07-31T04:55:12.123Z,99.90
2022-07-31T04:57:41.323Z,99.90
2022-07-31T05:00:10.514Z,99.90
2022-07-31T05:02:40.533Z,99.90
2022-07-31T05:05:11.077Z,99.90
2022-07-31T05:07:42.388Z,99.90
2022-07-31T05:10:35.993Z,99.90
2022-07-31T05:13:03.854Z,99.90
2022-07-31T05:15:33.670Z,99.90
2022-07-31T05:18:01.330Z,99.90
2022-07-31T05:21:10.325Z,99.90
2022-07-31T05:23:59.779Z,99.90
2022-07-31T05:26:45.800Z,99.90
2022-07-31T05:29:13.852Z,99.90
2022-07-31T05:31:59.382Z,99.90
2022-07-31T05:34:33.478Z,99.90
2022-07-31T05:37:02.068Z,99.90
2022-07-31T05:39:37.155Z,99.90
2022-07-31T05:42:26.099Z,99.90
2022-07-31T05:45:25.283Z,99.90
2022-07-31T05:47:53.407Z,99.90
2022-07-31T05:50:21.784Z,99.90
2022-07-31T05:52:52.461Z,99.90
2022-07-31T05:55:49.645Z,99.90
2022-07-31T05:58:59.421Z,99.90
2022-07-31T06:01:29.953Z,99.90
2022-07-31T06:03:57.874Z,99.90
2022-07-31T06:06:41.858Z,99.90
2022-07-31T06:09:16.349Z,99.90
2022-07-31T06:11:47.516Z,99.90
2022-07-31T06:14:15.488Z,99.90
2022-07-31T06:17:18.423Z,99.90
2022-07-31T06:19:47.570Z,99.90
2022-07-31T06:22:15.215Z,99.90
2022-07-31T06:24:43.500Z,99.90
2022-07-31T06:27:21.452Z,99.80
2022-07-31T06:29:59.401Z,99.90
2022-07-31T06:32:27.298Z,99.90
2022-07-31T06:34:55.506Z,99.90
2022-07-31T06:37:23.726Z,99.90
2022-07-31T06:39:55.790Z,99.90
2022-07-31T06:42:44.475Z,99.60
2022-07-31T06:45:41.661Z,99.70
2022-07-31T06:48:32.374Z,99.20
2022-07-31T06:51:29.896Z,99.60
2022-07-31T06:53:57.388Z,99.80
2022-07-31T06:56:25.280Z,99.90
2022-07-31T06:58:53.477Z,99.60
2022-07-31T07:01:21.510Z,99.20
2022-07-31T07:03:49.489Z,99.30
2022-07-31T07:06:17.221Z,99.30
2022-07-31T07:08:48.516Z,98.90
2022-07-31T07:11:21.489Z,98.40
2022-07-31T07:13:49.914Z,98.50
2022-07-31T07:16:46.025Z,98.70
2022-07-31T07:19:14.099Z,97.90
2022-07-31T07:21:43.772Z,97.90
2022-07-31T07:24:11.472Z,97.90
2022-07-31T07:26:46.416Z,97.80
2022-07-31T07:29:16.377Z,98.00
2022-07-31T07:31:44.694Z,98.00
2022-07-31T07:34:13.175Z,97.60
2022-07-31T07:36:41.070Z,97.80
2022-07-31T07:39:29.303Z,98.20
2022-07-31T07:41:57.394Z,97.40
2022-07-31T07:44:25.064Z,97.20
2022-07-31T07:46:53.340Z,97.30
2022-07-31T07:49:21.865Z,97.10
2022-07-31T07:52:14.650Z,96.90
2022-07-31T07:55:02.814Z,96.70
2022-07-31T07:57:49.377Z,96.70
2022-07-31T08:00:28.862Z,96.70
2022-07-31T08:03:47.468Z,97.40
2022-07-31T08:05:50.038Z,96.60
2022-07-31T08:08:17.931Z,96.60
2022-07-31T08:10:48.490Z,96.40
2022-07-31T08:13:23.518Z,96.20
2022-07-31T08:16:20.766Z,95.80
2022-07-31T08:18:51.983Z,96.30
2022-07-31T08:21:21.264Z,96.20
2022-07-31T08:23:49.124Z,95.90
2022-07-31T08:26:18.640Z,96.40
2022-07-31T08:28:49.796Z,96.30
2022-07-31T08:31:23.567Z,96.10
2022-07-31T08:34:10.932Z,96.20
2022-07-31T08:36:58.668Z,95.80
2022-07-31T08:39:26.524Z,95.70
2022-07-31T08:42:06.996Z,95.60
2022-07-31T08:44:42.438Z,95.40
2022-07-31T08:47:11.077Z,95.20
2022-07-31T08:49:46.694Z,94.80
2022-07-31T08:52:19.817Z,94.70
2022-07-31T08:54:57.000Z,94.50
2022-07-31T08:57:28.349Z,94.60
2022-07-31T09:00:05.507Z,94.60
2022-07-31T09:02:33.640Z,94.50
2022-07-31T09:05:22.917Z,95.30
2022-07-31T09:07:50.787Z,94.60
2022-07-31T09:10:21.536Z,94.60
2022-07-31T09:12:50.716Z,94.80
2022-07-31T09:15:23.941Z,94.90
2022-07-31T09:17:59.075Z,94.80
2022-07-31T09:20:30.489Z,94.60
2022-07-31T09:23:10.333Z,94.70
2022-07-31T09:25:58.188Z,94.50
2022-07-31T09:28:36.557Z,94.50
2022-07-31T09:31:04.995Z,94.50
2022-07-31T09:33:58.780Z,94.50
2022-07-31T09:36:49.429Z,94.50
2022-07-31T09:39:37.064Z,94.60
2022-07-31T09:42:55.487Z,94.60
2022-07-31T09:45:25.845Z,94.80
2022-07-31T09:48:15.139Z,94.70
2022-07-31T09:50:53.596Z,94.70
2022-07-31T09:53:21.654Z,94.80
2022-07-31T09:55:53.809Z,94.80
2022-07-31T09:58:22.463Z,94.70
2022-07-31T10:00:52.374Z,94.90
2022-07-31T10:03:23.080Z,94.80
2022-07-31T10:05:50.951Z,94.50
2022-07-31T10:08:19.693Z,94.60
2022-07-31T10:11:06.180Z,94.80
2022-07-31T10:13:51.225Z,94.50
2022-07-31T10:16:19.565Z,94.70
2022-07-31T10:18:54.406Z,94.70
2022-07-31T10:21:59.713Z,94.60
2022-07-31T10:24:33.518Z,94.80
2022-07-31T10:27:07.804Z,94.30
2022-07-31T10:29:41.692Z,94.30
2022-07-31T10:32:11.076Z,94.10
2022-07-31T10:34:59.209Z,94.20
2022-07-31T10:38:03.895Z,94.00
2022-07-31T10:40:52.846Z,94.00
2022-07-31T10:43:20.645Z,93.90
2022-07-31T10:46:35.688Z,93.80
2022-07-31T10:49:38.739Z,93.70
2022-07-31T10:52:33.798Z,93.70
2022-07-31T10:55:22.660Z,93.70
2022-07-31T10:58:17.053Z,93.40
2022-07-31T11:00:51.993Z,93.10
2022-07-31T11:03:41.915Z,93.00
2022-07-31T11:06:41.307Z,92.50
2022-07-31T11:09:28.857Z,92.20
2022-07-31T11:12:24.961Z,92.00
2022-07-31T11:15:25.129Z,91.90
2022-07-31T11:18:25.294Z,91.90
2022-07-31T11:21:17.797Z,91.90
2022-07-31T11:24:03.110Z,92.20
2022-07-31T11:26:32.758Z,92.40
2022-07-31T11:30:00.249Z,92.30
2022-07-31T11:32:01.502Z,92.40
2022-07-31T11:34:29.317Z,92.60
2022-07-31T11:36:57.010Z,92.70
2022-07-31T11:39:36.489Z,92.60
2022-07-31T11:42:05.076Z,92.40
2022-07-31T11:44:35.595Z,92.10
2022-07-31T11:47:03.513Z,92.00
2022-07-31T11:50:00.591Z,91.70
2022-07-31T11:52:31.284Z,91.80
2022-07-31T11:55:09.076Z,91.80
2022-07-31T11:57:50.917Z,91.80
2022-07-31T12:00:27.171Z,91.70
2022-07-31T12:02:57.968Z,91.80
2022-07-31T12:05:38.929Z,92.00
2022-07-31T12:08:07.694Z,91.90
2022-07-31T12:10:35.382Z,91.90
2022-07-31T12:13:02.817Z,92.30
2022-07-31T12:15:30.261Z,92.20
2022-07-31T12:18:02.048Z,92.10
2022-07-31T12:20:36.783Z,92.10
2022-07-31T12:23:05.883Z,92.10
2022-07-31T12:25:43.583Z,91.90
2022-07-31T12:28:13.035Z,92.00
2022-07-31T12:30:40.905Z,92.10
2022-07-31T12:33:12.032Z,92.20
2022-07-31T12:35:55.917Z,92.30
2022-07-31T12:38:45.530Z,92.20
2022-07-31T12:41:16.225Z,92.00
2022-07-31T12:43:51.801Z,91.50
2022-07-31T12:46:21.235Z,91.30
2022-07-31T12:48:48.921Z,91.00
2022-07-31T12:51:18.685Z,90.70
2022-07-31T12:53:48.084Z,90.70
2022-07-31T12:56:15.420Z,90.50
2022-07-31T12:58:42.868Z,90.10
2022-07-31T13:01:10.562Z,90.00
2022-07-31T13:03:45.921Z,89.90
2022-07-31T13:06:14.433Z,89.30
2022-07-31T13:08:43.871Z,88.70
2022-07-31T13:11:11.467Z,88.90
2022-07-31T13:13:38.963Z,88.90
2022-07-31T13:16:06.540Z,89.20
2022-07-31T13:18:35.756Z,89.50
2022-07-31T13:21:03.401Z,89.60
2022-07-31T13:23:30.987Z,89.80
2022-07-31T13:25:59.734Z,90.10
2022-07-31T13:28:27.354Z,90.30
2022-07-31T13:30:55.398Z,90.40
2022-07-31T13:33:22.848Z,90.90
2022-07-31T13:35:50.418Z,90.80
2022-07-31T13:38:21.102Z,90.90
2022-07-31T13:41:07.125Z,90.80
2022-07-31T13:43:34.985Z,90.70
2022-07-31T13:46:03.687Z,90.50
2022-07-31T13:48:31.435Z,90.20
2022-07-31T13:50:59.232Z,89.90
2022-07-31T13:53:26.760Z,90.00
2022-07-31T13:55:54.918Z,90.00
2022-07-31T13:58:23.202Z,90.00
2022-07-31T14:00:51.090Z,89.80
2022-07-31T14:03:20.501Z,90.20
2022-07-31T14:05:48.944Z,90.10
2022-07-31T14:08:32.906Z,89.70
2022-07-31T14:11:05.062Z,89.40
2022-07-31T14:13:42.351Z,90.00
2022-07-31T14:16:10.236Z,89.90
2022-07-31T14:18:38.898Z,89.90
2022-07-31T14:21:07.224Z,89.60
2022-07-31T14:23:40.701Z,88.90
2022-07-31T14:26:09.241Z,88.90
2022-07-31T14:28:36.735Z,89.70
2022-07-31T14:31:04.274Z,89.20
2022-07-31T14:33:32.292Z,88.70
2022-07-31T14:36:01.259Z,88.10
2022-07-31T14:38:28.794Z,86.40
2022-07-31T14:40:56.822Z,85.50
2022-07-31T14:43:24.426Z,85.20
2022-07-31T14:45:52.358Z,84.20
2022-07-31T14:48:20.030Z,83.80
2022-07-31T14:50:47.628Z,83.70
2022-07-31T14:53:15.081Z,82.20
2022-07-31T14:55:42.684Z,82.50
2022-07-31T14:58:10.262Z,82.70
2022-07-31T15:00:37.738Z,83.10
2022-07-31T15:03:05.103Z,81.90
2022-07-31T15:06:41.513Z,81.10
2022-07-31T15:08:20.528Z,80.50
2022-07-31T15:10:47.958Z,80.80
2022-07-31T15:13:16.120Z,80.10
2022-07-31T15:15:48.435Z,80.10
2022-07-31T15:18:17.002Z,80.20
2022-07-31T15:20:44.662Z,80.80
2022-07-31T15:23:12.376Z,80.30
2022-07-31T15:25:40.081Z,79.50
2022-07-31T15:28:07.466Z,79.10
2022-07-31T15:30:35.047Z,78.80
2022-07-31T15:33:03.839Z,78.00
2022-07-31T15:35:31.364Z,77.30
2022-07-31T15:37:59.502Z,77.90
2022-07-31T15:40:26.943Z,78.20
2022-07-31T15:42:55.035Z,78.40
2022-07-31T15:45:22.747Z,79.20
2022-07-31T15:47:50.602Z,79.70
2022-07-31T15:50:21.731Z,80.30
2022-07-31T15:52:50.450Z,81.10
2022-07-31T15:55:19.117Z,81.80
2022-07-31T15:57:49.444Z,81.90
2022-07-31T16:00:19.036Z,81.70
2022-07-31T16:02:46.513Z,81.00
2022-07-31T16:05:35.812Z,80.50
2022-07-31T16:08:28.477Z,80.30
2022-07-31T16:10:55.832Z,79.60
2022-07-31T16:13:24.214Z,79.50
2022-07-31T16:15:52.465Z,78.50
2022-07-31T16:18:20.234Z,78.90
2022-07-31T16:20:48.039Z,79.40
2022-07-31T16:23:15.423Z,80.10
2022-07-31T16:25:44.883Z,80.60
2022-07-31T16:28:13.593Z,80.20
2022-07-31T16:30:42.359Z,79.40
2022-07-31T16:33:11.548Z,79.30
2022-07-31T16:35:39.055Z,79.40
2022-07-31T16:38:07.987Z,79.60
2022-07-31T16:40:35.478Z,78.50
2022-07-31T16:43:49.924Z,78.10
2022-07-31T16:45:51.743Z,77.30
2022-07-31T16:48:19.410Z,77.20
2022-07-31T16:50:48.279Z,77.10
2022-07-31T16:54:13.379Z,77.00
2022-07-31T16:56:15.031Z,76.20
2022-07-31T16:58:43.745Z,76.50
2022-07-31T17:01:56.795Z,76.40
2022-07-31T17:04:04.282Z,76.50
2022-07-31T17:06:37.513Z,77.70
2022-07-31T17:09:16.346Z,79.80
2022-07-31T17:11:50.354Z,79.80
2022-07-31T17:14:19.077Z,80.60
2022-07-31T17:16:48.659Z,81.50
2022-07-31T17:19:35.930Z,82.00
2022-07-31T17:22:05.859Z,82.80
2022-07-31T17:24:39.213Z,83.20
2022-07-31T17:27:08.101Z,83.40
2022-07-31T17:29:36.825Z,83.10
2022-07-31T17:32:04.499Z,83.70
2022-07-31T17:34:33.476Z,83.60
2022-07-31T17:37:01.323Z,83.90
2022-07-31T17:39:31.062Z,83.80
2022-07-31T17:41:59.472Z,84.10
2022-07-31T17:44:28.312Z,84.40
2022-07-31T17:46:57.997Z,84.40
2022-07-31T17:49:26.926Z,85.10
2022-07-31T17:51:58.643Z,85.90
2022-07-31T17:54:28.510Z,86.40
2022-07-31T17:57:01.554Z,87.10
2022-07-31T17:59:30.689Z,87.30
2022-07-31T18:02:00.478Z,87.40
2022-07-31T18:04:29.152Z,87.90
2022-07-31T18:06:57.468Z,87.00
2022-07-31T18:09:25.127Z,86.30
2022-07-31T18:11:54.183Z,86.00
2022-07-31T18:14:24.993Z,85.90
2022-07-31T18:16:53.189Z,86.00
2022-07-31T18:19:23.034Z,86.10
2022-07-31T18:21:51.283Z,85.60
2022-07-31T18:24:19.320Z,85.70
2022-07-31T18:26:47.411Z,85.20
2022-07-31T18:29:16.936Z,85.30
2022-07-31T18:31:45.536Z,85.70
2022-07-31T18:34:13.221Z,85.10
2022-07-31T18:36:40.724Z,85.00
2022-07-31T18:39:08.575Z,84.80
2022-07-31T18:41:37.309Z,84.90
2022-07-31T18:44:05.120Z,85.10
2022-07-31T18:46:32.745Z,85.70
2022-07-31T18:49:00.809Z,85.30
2022-07-31T18:51:29.658Z,85.70
2022-07-31T18:53:57.852Z,86.30
2022-07-31T18:56:26.127Z,85.70
2022-07-31T18:58:54.393Z,85.50
2022-07-31T19:01:22.413Z,85.60
2022-07-31T19:03:51.689Z,85.60
2022-07-31T19:06:19.582Z,85.60
2022-07-31T19:08:50.334Z,85.40
2022-07-31T19:11:20.945Z,85.40
2022-07-31T19:13:48.600Z,85.50
2022-07-31T19:16:17.582Z,85.40
2022-07-31T19:18:45.605Z,85.90
2022-07-31T19:21:41.568Z,86.60
2022-07-31T19:24:08.037Z,86.60
2022-07-31T19:26:36.495Z,87.50
2022-07-31T19:29:04.204Z,87.90
2022-07-31T19:31:31.741Z,88.40
2022-07-31T19:33:59.315Z,89.60
2022-07-31T19:36:26.959Z,89.60
2022-07-31T19:38:57.734Z,90.20
2022-07-31T19:41:25.110Z,90.00
2022-07-31T19:43:52.656Z,90.00
2022-07-31T19:46:20.153Z,90.10
2022-07-31T19:48:47.804Z,90.70
2022-07-31T19:51:16.314Z,90.90
2022-07-31T19:53:44.619Z,90.90
2022-07-31T19:56:18.142Z,91.60
2022-07-31T19:58:48.570Z,91.20
2022-07-31T20:01:16.648Z,91.50
2022-07-31T20:03:44.357Z,91.70
2022-07-31T20:06:11.889Z,91.60
2022-07-31T20:08:39.777Z,91.80
2022-07-31T20:11:07.787Z,91.90
2022-07-31T20:13:38.859Z,91.60
2022-07-31T20:16:06.734Z,91.70
2022-07-31T20:18:34.364Z,92.10
2022-07-31T20:21:03.609Z,91.80
2022-07-31T20:23:34.253Z,91.90
2022-07-31T20:26:02.200Z,92.10
2022-07-31T20:28:29.815Z,92.30
2022-07-31T20:30:58.344Z,92.50
2022-07-31T20:33:25.772Z,92.40
2022-07-31T20:35:53.280Z,92.70
2022-07-31T20:38:22.397Z,92.50
2022-07-31T20:40:54.733Z,92.60
2022-07-31T20:43:24.469Z,92.40
2022-07-31T20:45:52.732Z,92.30
2022-07-31T20:48:24.842Z,92.10
2022-07-31T20:50:53.052Z,92.10
2022-07-31T20:53:21.990Z,92.30
2022-07-31T20:55:50.687Z,92.20
2022-07-31T20:58:19.168Z,92.30
2022-07-31T21:00:47.707Z,92.50
2022-07-31T21:03:17.215Z,92.60
2022-07-31T21:05:45.643Z,92.70
2022-07-31T21:08:13.345Z,92.60
2022-07-31T21:10:40.918Z,93.40
2022-07-31T21:13:08.572Z,93.30
2022-07-31T21:15:41.699Z,92.90
2022-07-31T21:18:14.342Z,93.60
2022-07-31T21:20:51.947Z,93.70
2022-07-31T21:23:24.478Z,93.60
2022-07-31T21:25:52.551Z,93.70
2022-07-31T21:28:21.151Z,93.70
2022-07-31T21:30:48.764Z,93.80
2022-07-31T21:33:16.396Z,94.10
2022-07-31T21:35:44.263Z,93.90
2022-07-31T21:38:12.570Z,94.00
2022-07-31T21:40:40.839Z,93.90
2022-07-31T21:43:09.255Z,94.00
2022-07-31T21:45:50.434Z,94.20
2022-07-31T21:48:25.083Z,94.20
2022-07-31T21:50:53.652Z,94.50
2022-07-31T21:53:21.502Z,94.30
2022-07-31T21:55:49.186Z,93.90
2022-07-31T21:58:16.736Z,94.90
2022-07-31T22:00:44.603Z,94.60
2022-07-31T22:03:14.578Z,94.60
2022-07-31T22:06:00.907Z,94.90
2022-07-31T22:08:28.813Z,94.60
2022-07-31T22:10:56.584Z,94.90
2022-07-31T22:13:24.203Z,94.90
2022-07-31T22:15:59.891Z,95.30
2022-07-31T22:18:32.736Z,95.10
2022-07-31T22:21:01.257Z,95.10
2022-07-31T22:23:29.090Z,95.20
2022-07-31T22:25:57.058Z,95.10
2022-07-31T22:28:26.067Z,94.90
2022-07-31T22:30:55.187Z,94.90
2022-07-31T22:33:22.920Z,95.40
2022-07-31T22:35:59.828Z,95.40
2022-07-31T22:38:29.317Z,95.10
2022-07-31T22:40:57.452Z,95.20
2022-07-31T22:44:11.175Z,95.40
2022-07-31T22:46:12.948Z,95.30
2022-07-31T22:48:41.069Z,95.40
2022-07-31T22:51:12.800Z,95.60
2022-07-31T22:53:42.662Z,95.50
2022-07-31T22:56:10.458Z,95.80
2022-07-31T22:58:38.144Z,95.70
2022-07-31T23:01:05.615Z,95.70
2022-07-31T23:03:33.138Z,96.00
2022-07-31T23:06:29.535Z,95.80
2022-07-31T23:08:54.996Z,96.30
2022-07-31T23:11:23.311Z,96.20
2022-07-31T23:13:51.342Z,96.20
2022-07-31T23:16:20.275Z,96.00
2022-07-31T23:18:48.381Z,96.30
2022-07-31T23:21:16.874Z,96.30
2022-07-31T23:23:48.592Z,96.10
2022-07-31T23:26:18.906Z,96.30
2022-07-31T23:28:46.976Z,96.50
2022-07-31T23:31:14.740Z,96.40
2022-07-31T23:33:42.451Z,96.40
2022-07-31T23:36:10.226Z,96.50
2022-07-31T23:38:38.121Z,96.60
2022-07-31T23:41:05.671Z,96.40
2022-07-31T23:43:33.236Z,96.40
2022-07-31T23:46:00.774Z,96.40
2022-07-31T23:48:29.966Z,96.40
2022-07-31T23:50:58.164Z,96.40
2022-07-31T23:53:25.617Z,96.90
2022-07-31T23:55:53.170Z,96.40
2022-07-31T23:58:20.762Z,96.50
